Mijn Webcam  Mijn Webcam


webcam richting noord-oost  webcam facing north-east


Regen radar Meer informatie rain snow radar


Bezoek onze andere website:

Template documentation
and downloads

HWS Template - cumulus versie

And another site



METAR rapporten vliegvelden

   
EHGG - Groningen/Eelde, Netherlands
Afstand tot: Z 20 km
Gewijzigd: 01-12-2021 14:25
Grotendeels bewolkt  
Grotendeels bewolkt  
   Wind: Westen 44.4 km/h<br />Gust to 44.4 km/h
Wind: Westen 44.4 km/h
Gust to 44.4 km/h
Temperatuur: 8°C
Voelt als: 3°C
Dauwpunt: 4°C
Vochtigheid: 76%
Barometer: 983 hPa
Bewolking: Grotendeels bewolkt
Zicht: meer dan 10 km
Bewolking: Licht bewolkt 579.1 m,
Grotendeels bewolkt 853.4 m,
Grotendeels bewolkt 975.4 m
EHGG 011325Z AUTO 26024G37KT 230V300 9999 FEW019 BKN028 BKN032 08/04 Q0983 REDZ NOSIG
EHMA - Awg-1 Sea, Netherlands
Afstand tot: WNW 45 km
Gewijzigd: 01-12-2021 14:25
Grotendeels bewolkt  
Grotendeels bewolkt  
   Wind: WNW 81.5 km/h
Wind: WNW 81.5 km/h
Temperatuur: 8°C
Voelt als: 2°C
Dauwpunt: 4°C
Vochtigheid: 76%
Barometer: 981 hPa
Bewolking: Grotendeels bewolkt
Zicht: 9 km
Bewolking: Licht bewolkt 548.6 m,
Gedeeltelijk bewolkt 762 m,
Grotendeels bewolkt 853.4 m
EHMA 011325Z AUTO 30044KT 9000 FEW018 SCT025 BKN028 08/04 Q0981
 

Script ontwikkeld door  Saratoga-weather.org Aangepast voor de template door  Weerstation Leuven

U vindt ons ook hier:

Het Weer Aktueel

UK Metoffice

European Weather Network

WeatherCloud

Weather Underground

Benelux Weer Netwerk

AWEKAS

WeatherlinkIP

HAMweather, WeatherForYou, PWS Weather

Apparatuur in gebruik:

Weerstation
Davis VP2

Weerprogramma
Cumulus

Davis VP2

Cumulus